sensor_id;sensor_type;location;lat;lon;timestamp;temperature;humidity
26613;DHT22;14248;57.652;11.908;2023-04-16T12:00:15;20.30;68.10
26613;DHT22;14248;57.652;11.908;2023-04-16T12:02:43;18.70;69.20
26613;DHT22;14248;57.652;11.908;2023-04-16T12:07:58;18.60;70.20
26613;DHT22;14248;57.652;11.908;2023-04-16T12:10:28;18.90;69.80
26613;DHT22;14248;57.652;11.908;2023-04-16T12:13:07;18.90;68.70
26613;DHT22;14248;57.652;11.908;2023-04-16T12:18:12;18.90;68.60
26613;DHT22;14248;57.652;11.908;2023-04-16T12:20:39;18.90;67.00
26613;DHT22;14248;57.652;11.908;2023-04-16T12:23:09;18.90;66.80
26613;DHT22;14248;57.652;11.908;2023-04-16T12:25:35;18.90;66.70
26613;DHT22;14248;57.652;11.908;2023-04-16T12:28:02;18.90;67.00
26613;DHT22;14248;57.652;11.908;2023-04-16T12:30:29;18.90;66.40
26613;DHT22;14248;57.652;11.908;2023-04-16T12:33:17;18.90;66.40
26613;DHT22;14248;57.652;11.908;2023-04-16T12:38:10;19.00;66.50
26613;DHT22;14248;57.652;11.908;2023-04-16T12:40:36;19.20;66.30
26613;DHT22;14248;57.652;11.908;2023-04-16T13:05:01;19.40;66.50
26613;DHT22;14248;57.652;11.908;2023-04-16T13:07:27;20.80;64.60
26613;DHT22;14248;57.652;11.908;2023-04-16T13:09:53;21.00;62.90
26613;DHT22;14248;57.652;11.908;2023-04-16T13:12:19;21.00;63.40
26613;DHT22;14248;57.652;11.908;2023-04-16T13:14:46;21.10;63.40
26613;DHT22;14248;57.652;11.908;2023-04-16T13:17:12;21.40;63.30
26613;DHT22;14248;57.652;11.908;2023-04-16T13:19:38;21.60;61.90
26613;DHT22;14248;57.652;11.908;2023-04-16T13:22:03;21.80;62.10
26613;DHT22;14248;57.652;11.908;2023-04-16T13:24:29;21.90;60.90
26613;DHT22;14248;57.652;11.908;2023-04-16T13:26:55;22.00;61.30
26613;DHT22;14248;57.652;11.908;2023-04-16T13:29:21;22.20;61.80
26613;DHT22;14248;57.652;11.908;2023-04-16T13:31:47;22.50;61.20
26613;DHT22;14248;57.652;11.908;2023-04-16T13:34:12;22.70;59.60
26613;DHT22;14248;57.652;11.908;2023-04-16T13:36:38;22.90;59.30
26613;DHT22;14248;57.652;11.908;2023-04-16T13:39:05;23.10;58.10
26613;DHT22;14248;57.652;11.908;2023-04-16T13:41:36;23.20;57.70
26613;DHT22;14248;57.652;11.908;2023-04-16T13:44:02;23.70;57.50
26613;DHT22;14248;57.652;11.908;2023-04-16T13:46:28;24.40;56.30
26613;DHT22;14248;57.652;11.908;2023-04-16T13:48:54;25.10;55.80
26613;DHT22;14248;57.652;11.908;2023-04-16T13:51:20;25.60;54.20
26613;DHT22;14248;57.652;11.908;2023-04-16T13:53:46;26.10;54.20
26613;DHT22;14248;57.652;11.908;2023-04-16T13:56:12;27.00;53.40
26613;DHT22;14248;57.652;11.908;2023-04-16T13:58:38;27.70;51.90
26613;DHT22;14248;57.652;11.908;2023-04-16T14:01:03;28.40;50.60
26613;DHT22;14248;57.652;11.908;2023-04-16T14:03:30;29.10;50.10
26613;DHT22;14248;57.652;11.908;2023-04-16T14:06:03;29.60;48.70
26613;DHT22;14248;57.652;11.908;2023-04-16T14:08:29;29.80;46.90
26613;DHT22;14248;57.652;11.908;2023-04-16T14:10:56;30.10;46.90
26613;DHT22;14248;57.652;11.908;2023-04-16T14:13:22;30.40;46.20
26613;DHT22;14248;57.652;11.908;2023-04-16T14:15:48;30.70;45.30
26613;DHT22;14248;57.652;11.908;2023-04-16T14:18:14;31.00;44.80
26613;DHT22;14248;57.652;11.908;2023-04-16T14:20:40;31.40;44.30
26613;DHT22;14248;57.652;11.908;2023-04-16T14:23:05;31.90;43.20
26613;DHT22;14248;57.652;11.908;2023-04-16T14:25:31;32.20;41.70
26613;DHT22;14248;57.652;11.908;2023-04-16T14:28:00;31.80;41.10
26613;DHT22;14248;57.652;11.908;2023-04-16T14:30:26;30.80;40.30
26613;DHT22;14248;57.652;11.908;2023-04-16T14:32:53;29.80;40.70
26613;DHT22;14248;57.652;11.908;2023-04-16T14:35:21;29.00;41.50
26613;DHT22;14248;57.652;11.908;2023-04-16T14:37:47;28.10;41.90
26613;DHT22;14248;57.652;11.908;2023-04-16T14:40:13;27.90;43.40
26613;DHT22;14248;57.652;11.908;2023-04-16T14:42:39;28.70;43.80
26613;DHT22;14248;57.652;11.908;2023-04-16T14:45:05;29.90;43.50
26613;DHT22;14248;57.652;11.908;2023-04-16T14:47:32;30.80;42.20
26613;DHT22;14248;57.652;11.908;2023-04-16T14:49:59;31.50;41.50
26613;DHT22;14248;57.652;11.908;2023-04-16T14:52:25;32.10;40.80
26613;DHT22;14248;57.652;11.908;2023-04-16T14:54:52;32.50;39.50
26613;DHT22;14248;57.652;11.908;2023-04-16T14:57:19;32.90;39.80
26613;DHT22;14248;57.652;11.908;2023-04-16T14:59:45;33.10;38.70
26613;DHT22;14248;57.652;11.908;2023-04-16T15:02:11;33.10;38.70
26613;DHT22;14248;57.652;11.908;2023-04-16T15:04:37;33.50;39.10
26613;DHT22;14248;57.652;11.908;2023-04-16T15:07:03;33.70;38.30
26613;DHT22;14248;57.652;11.908;2023-04-16T15:09:28;33.70;36.70
26613;DHT22;14248;57.652;11.908;2023-04-16T15:11:54;33.50;36.30
26613;DHT22;14248;57.652;11.908;2023-04-16T15:14:21;33.00;37.00
26613;DHT22;14248;57.652;11.908;2023-04-16T15:16:47;32.50;36.30
26613;DHT22;14248;57.652;11.908;2023-04-16T15:19:13;31.90;37.00
26613;DHT22;14248;57.652;11.908;2023-04-16T15:21:38;31.70;37.40
26613;DHT22;14248;57.652;11.908;2023-04-16T15:24:04;31.70;37.80
26613;DHT22;14248;57.652;11.908;2023-04-16T15:26:30;31.80;38.10
26613;DHT22;14248;57.652;11.908;2023-04-16T15:28:56;31.80;37.40
26613;DHT22;14248;57.652;11.908;2023-04-16T15:31:22;31.70;38.20
26613;DHT22;14248;57.652;11.908;2023-04-16T15:33:48;31.90;38.00
26613;DHT22;14248;57.652;11.908;2023-04-16T15:36:14;32.00;37.70
26613;DHT22;14248;57.652;11.908;2023-04-16T15:38:40;32.00;37.60
26613;DHT22;14248;57.652;11.908;2023-04-16T15:41:08;31.80;37.10
26613;DHT22;14248;57.652;11.908;2023-04-16T15:43:34;31.40;37.40
26613;DHT22;14248;57.652;11.908;2023-04-16T15:45:59;31.20;37.90
26613;DHT22;14248;57.652;11.908;2023-04-16T15:48:25;31.00;37.40
26613;DHT22;14248;57.652;11.908;2023-04-16T15:50:51;30.60;38.00
26613;DHT22;14248;57.652;11.908;2023-04-16T15:55:44;30.60;38.50
26613;DHT22;14248;57.652;11.908;2023-04-16T15:58:10;30.80;37.60
26613;DHT22;14248;57.652;11.908;2023-04-16T16:00:36;30.40;37.60
26613;DHT22;14248;57.652;11.908;2023-04-16T16:10:26;30.10;38.10
26613;DHT22;14248;57.652;11.908;2023-04-16T16:12:55;29.60;38.70
26613;DHT22;14248;57.652;11.908;2023-04-16T16:15:25;29.30;38.30
26613;DHT22;14248;57.652;11.908;2023-04-16T16:22:45;29.00;39.50
26613;DHT22;14248;57.652;11.908;2023-04-16T16:27:45;28.70;40.20
26613;DHT22;14248;57.652;11.908;2023-04-16T16:30:11;29.20;38.80
26613;DHT22;14248;57.652;11.908;2023-04-16T16:32:37;29.00;38.10
26613;DHT22;14248;57.652;11.908;2023-04-16T16:35:07;28.40;38.80
26613;DHT22;14248;57.652;11.908;2023-04-16T16:37:34;27.90;39.20
26613;DHT22;14248;57.652;11.908;2023-04-16T16:54:36;27.30;39.80
26613;DHT22;14248;57.652;11.908;2023-04-16T17:04:20;26.70;41.30
26613;DHT22;14248;57.652;11.908;2023-04-16T17:06:46;27.20;40.50
26613;DHT22;14248;57.652;11.908;2023-04-16T17:09:11;27.30;40.30
26613;DHT22;14248;57.652;11.908;2023-04-16T17:11:37;27.30;40.60
26613;DHT22;14248;57.652;11.908;2023-04-16T17:14:03;27.30;40.00
